createdAt,value
2022-12-04T00:00:34.687Z,1.27
2022-12-04T00:03:01.822Z,1.42
2022-12-04T00:05:28.841Z,1.20
2022-12-04T00:07:55.939Z,1.40
2022-12-04T00:10:23.010Z,1.20
2022-12-04T00:12:50.012Z,1.00
2022-12-04T00:15:25.349Z,1.10
2022-12-04T00:17:53.315Z,1.10
2022-12-04T00:20:20.417Z,1.20
2022-12-04T00:22:47.501Z,1.40
2022-12-04T00:25:14.486Z,1.17
2022-12-04T00:27:41.599Z,1.08
2022-12-04T00:30:09.062Z,1.10
2022-12-04T00:32:36.232Z,1.30
2022-12-04T00:35:04.050Z,1.20
2022-12-04T00:37:31.122Z,1.23
2022-12-04T00:39:58.133Z,1.30
2022-12-04T00:42:25.487Z,1.20
2022-12-04T00:44:52.482Z,0.88
2022-12-04T00:47:19.455Z,1.23
2022-12-04T00:49:46.627Z,1.30
2022-12-04T00:52:13.604Z,1.10
2022-12-04T00:54:40.598Z,1.00
2022-12-04T00:57:07.730Z,1.10
2022-12-04T00:59:34.759Z,1.10
2022-12-04T01:02:01.817Z,1.88
2022-12-04T01:04:28.875Z,1.38
2022-12-04T01:06:59.024Z,1.30
2022-12-04T01:09:28.720Z,1.80
2022-12-04T01:11:55.719Z,0.95
2022-12-04T01:14:22.691Z,1.65
2022-12-04T01:16:49.773Z,1.00
2022-12-04T01:19:16.823Z,1.08
2022-12-04T01:21:43.991Z,1.15
2022-12-04T01:24:10.962Z,1.10
2022-12-04T01:26:37.946Z,1.25
2022-12-04T01:29:05.887Z,1.05
2022-12-04T01:31:32.978Z,1.40
2022-12-04T01:34:00.100Z,1.13
2022-12-04T01:36:28.900Z,1.42
2022-12-04T01:38:56.411Z,1.10
2022-12-04T01:41:26.936Z,1.13
2022-12-04T01:44:31.017Z,1.27
2022-12-04T01:47:01.020Z,1.08
2022-12-04T01:49:42.900Z,1.20
2022-12-04T01:52:22.055Z,1.13
2022-12-04T01:54:57.466Z,1.23
2022-12-04T01:57:28.592Z,1.08
2022-12-04T02:00:02.955Z,1.20
2022-12-04T02:02:35.015Z,0.73
2022-12-04T02:05:04.654Z,0.90
2022-12-04T02:07:32.625Z,1.00
2022-12-04T02:10:04.162Z,0.60
2022-12-04T02:12:56.153Z,1.00
2022-12-04T02:15:27.000Z,0.80
2022-12-04T02:18:15.318Z,0.70
2022-12-04T02:21:14.958Z,0.70
2022-12-04T02:23:56.869Z,0.90
2022-12-04T02:26:47.512Z,1.00
2022-12-04T02:29:50.101Z,0.90
2022-12-04T02:32:24.753Z,0.77
2022-12-04T02:34:59.554Z,0.85
2022-12-04T02:37:48.623Z,0.85
2022-12-04T02:40:27.056Z,0.70
2022-12-04T02:43:22.967Z,1.17
2022-12-04T02:46:14.527Z,1.00
2022-12-04T02:48:44.764Z,0.88
2022-12-04T02:51:16.667Z,0.90
2022-12-04T02:53:51.676Z,0.88
2022-12-04T02:56:25.560Z,0.90
2022-12-04T03:01:30.325Z,1.02
2022-12-04T03:04:15.925Z,0.90
2022-12-04T03:06:47.686Z,0.85
2022-12-04T03:09:47.530Z,1.00
2022-12-04T03:12:24.303Z,0.90
2022-12-04T03:15:22.412Z,0.90
2022-12-04T03:18:00.766Z,0.95
2022-12-04T03:20:31.363Z,0.90
2022-12-04T03:23:10.018Z,1.00
2022-12-04T03:25:54.458Z,0.90
2022-12-04T03:28:41.343Z,0.70
2022-12-04T03:31:11.395Z,1.08
2022-12-04T03:33:48.147Z,0.95
2022-12-04T03:36:28.266Z,1.13
2022-12-04T03:39:02.011Z,0.90
2022-12-04T03:42:02.574Z,0.90
2022-12-04T03:44:44.147Z,1.13
2022-12-04T03:47:16.676Z,0.90
2022-12-04T03:49:59.327Z,0.95
2022-12-04T03:52:44.574Z,1.00
2022-12-04T03:55:35.196Z,0.98
2022-12-04T03:58:07.502Z,1.05
2022-12-04T04:00:40.452Z,1.00
2022-12-04T04:03:21.300Z,1.10
2022-12-04T04:05:52.145Z,1.00
2022-12-04T04:08:27.467Z,1.20
2022-12-04T04:10:59.583Z,0.90
2022-12-04T04:13:52.064Z,0.90
2022-12-04T04:16:41.702Z,1.02
2022-12-04T04:19:30.519Z,1.00
2022-12-04T04:22:17.745Z,0.82
2022-12-04T04:25:04.127Z,1.02
2022-12-04T04:27:31.151Z,1.08
2022-12-04T04:29:58.771Z,0.77
2022-12-04T04:32:45.516Z,0.90
2022-12-04T04:35:27.854Z,1.00
2022-12-04T04:38:22.071Z,0.70
2022-12-04T04:41:00.160Z,0.85
2022-12-04T04:43:46.977Z,1.00
2022-12-04T04:46:20.075Z,0.90
2022-12-04T04:48:51.914Z,1.30
2022-12-04T04:51:20.092Z,0.70
2022-12-04T04:53:50.849Z,1.02
2022-12-04T04:56:18.526Z,0.73
2022-12-04T04:58:45.905Z,0.98
2022-12-04T05:01:16.459Z,0.77
2022-12-04T05:03:43.599Z,0.90
2022-12-04T05:06:10.841Z,0.82
2022-12-04T05:08:38.051Z,0.80
2022-12-04T05:11:06.319Z,0.95
2022-12-04T05:13:33.720Z,0.80
2022-12-04T05:16:04.288Z,0.70
2022-12-04T05:18:32.317Z,0.70
2022-12-04T05:20:59.502Z,0.63
2022-12-04T05:23:26.559Z,0.70
2022-12-04T05:26:00.907Z,0.57
2022-12-04T05:28:28.354Z,0.70
2022-12-04T05:31:01.747Z,0.63
2022-12-04T05:33:29.415Z,0.60
2022-12-04T05:36:01.495Z,0.50
2022-12-04T05:38:28.741Z,0.50
2022-12-04T05:40:58.823Z,0.40
2022-12-04T05:43:26.010Z,0.40
2022-12-04T05:45:53.013Z,0.40
2022-12-04T05:48:20.252Z,0.40
2022-12-04T05:50:47.925Z,0.50
2022-12-04T05:53:14.988Z,0.30
2022-12-04T05:55:41.984Z,0.50
2022-12-04T05:58:09.074Z,0.43
2022-12-04T06:00:36.374Z,0.68
2022-12-04T06:03:03.491Z,0.40
2022-12-04T06:05:32.930Z,0.35
2022-12-04T06:08:00.149Z,0.32
2022-12-04T06:10:27.227Z,0.40
2022-12-04T06:12:57.985Z,0.30
2022-12-04T06:15:25.158Z,0.38
2022-12-04T06:17:52.170Z,0.50
2022-12-04T06:20:19.397Z,0.40
2022-12-04T06:22:46.446Z,0.40
2022-12-04T06:25:13.459Z,0.50
2022-12-04T06:27:40.521Z,0.40
2022-12-04T06:30:08.264Z,0.50
2022-12-04T06:32:35.219Z,0.43
2022-12-04T06:35:02.476Z,0.30
2022-12-04T06:37:29.473Z,0.70
2022-12-04T06:39:56.674Z,0.52
2022-12-04T06:42:24.095Z,0.57
2022-12-04T06:44:51.059Z,0.40
2022-12-04T06:47:18.205Z,0.60
2022-12-04T06:49:46.797Z,0.70
2022-12-04T06:52:13.834Z,0.50
2022-12-04T06:54:40.831Z,0.50
2022-12-04T06:57:07.978Z,0.60
2022-12-04T06:59:35.150Z,0.45
2022-12-04T07:02:02.176Z,0.40
2022-12-04T07:04:29.265Z,0.47
2022-12-04T07:06:56.330Z,0.45
2022-12-04T07:09:23.463Z,0.40
2022-12-04T07:11:50.540Z,0.50
2022-12-04T07:14:17.545Z,0.45
2022-12-04T07:16:44.656Z,0.50
2022-12-04T07:19:14.017Z,0.50
2022-12-04T07:21:43.544Z,0.40
2022-12-04T07:24:16.989Z,0.30
2022-12-04T07:26:44.019Z,0.40
2022-12-04T07:29:11.188Z,0.40
2022-12-04T07:31:38.542Z,0.50
2022-12-04T07:34:05.645Z,0.30
2022-12-04T07:36:32.755Z,0.30
2022-12-04T07:38:59.960Z,0.60
2022-12-04T07:41:27.000Z,0.32
2022-12-04T07:43:54.960Z,0.40
2022-12-04T07:46:24.771Z,0.50
2022-12-04T07:48:52.008Z,0.50
2022-12-04T07:51:22.114Z,0.60
2022-12-04T07:53:50.523Z,0.57
2022-12-04T07:56:18.033Z,0.40
2022-12-04T07:58:45.549Z,0.70
2022-12-04T08:01:14.132Z,0.47
2022-12-04T08:03:47.672Z,0.50
2022-12-04T08:06:17.534Z,0.30
2022-12-04T08:08:44.509Z,0.50
2022-12-04T08:11:14.330Z,0.40
2022-12-04T08:13:41.379Z,0.50
2022-12-04T08:16:10.271Z,0.40
2022-12-04T08:18:37.775Z,0.57
2022-12-04T08:21:12.960Z,0.50
2022-12-04T08:23:41.251Z,0.50
2022-12-04T08:26:08.839Z,0.60
2022-12-04T08:28:36.687Z,0.40
2022-12-04T08:31:15.494Z,0.40
2022-12-04T08:33:43.833Z,0.50
2022-12-04T08:36:13.467Z,0.40
2022-12-04T08:38:40.799Z,0.40
2022-12-04T08:41:10.907Z,0.63
2022-12-04T08:43:38.210Z,0.60
2022-12-04T08:46:09.259Z,0.50
2022-12-04T08:48:36.876Z,0.50
2022-12-04T08:51:04.977Z,0.40
2022-12-04T08:53:32.632Z,0.40
2022-12-04T08:56:01.706Z,0.40
2022-12-04T08:58:28.789Z,0.50
2022-12-04T09:00:56.058Z,0.40
2022-12-04T09:03:29.189Z,0.50
2022-12-04T09:06:01.841Z,0.40
2022-12-04T09:08:28.889Z,0.50
2022-12-04T09:10:55.966Z,0.57
2022-12-04T09:13:22.986Z,0.50
2022-12-04T09:15:50.182Z,0.60
2022-12-04T09:18:17.258Z,0.38
2022-12-04T09:20:44.253Z,0.50
2022-12-04T09:23:11.495Z,0.38
2022-12-04T09:25:38.548Z,0.40
2022-12-04T09:28:05.527Z,0.40
2022-12-04T09:30:32.697Z,0.63
2022-12-04T09:32:59.832Z,0.40
2022-12-04T09:35:26.851Z,0.52
2022-12-04T09:37:54.039Z,0.60
2022-12-04T09:40:37.593Z,0.60
2022-12-04T09:45:59.731Z,0.40
2022-12-04T09:48:36.383Z,0.43
2022-12-04T09:51:06.162Z,0.70
2022-12-04T09:53:55.368Z,0.40
2022-12-04T09:56:28.156Z,0.68
2022-12-04T09:59:09.425Z,0.50
2022-12-04T10:01:45.781Z,0.40
2022-12-04T10:04:13.633Z,0.45
2022-12-04T10:07:07.857Z,0.60
2022-12-04T10:09:59.812Z,0.57
2022-12-04T10:12:32.777Z,0.50
2022-12-04T10:15:19.468Z,0.63
2022-12-04T10:17:46.555Z,0.63
2022-12-04T10:20:37.815Z,0.60
2022-12-04T10:23:28.115Z,0.70
2022-12-04T10:25:55.682Z,0.50
2022-12-04T10:28:28.555Z,0.60
2022-12-04T10:31:01.010Z,0.70
2022-12-04T10:33:48.996Z,0.70
2022-12-04T10:36:22.204Z,0.70
2022-12-04T10:38:56.699Z,0.90
2022-12-04T10:41:34.233Z,0.75
2022-12-04T10:44:01.292Z,0.93
2022-12-04T10:46:30.692Z,0.95
2022-12-04T10:49:04.237Z,0.68
2022-12-04T10:51:39.843Z,1.25
2022-12-04T10:54:25.649Z,1.40
2022-12-04T10:56:54.018Z,0.95
2022-12-04T10:59:21.512Z,1.23
2022-12-04T11:01:50.456Z,1.00
2022-12-04T11:04:25.304Z,1.15
2022-12-04T11:07:03.445Z,0.90
2022-12-04T11:09:31.890Z,0.82
2022-12-04T11:12:16.358Z,1.33
2022-12-04T11:14:46.983Z,0.90
2022-12-04T11:17:20.261Z,0.80
2022-12-04T11:19:47.908Z,0.73
2022-12-04T11:22:19.783Z,0.70
2022-12-04T11:24:53.614Z,0.70
2022-12-04T11:29:50.861Z,0.70
2022-12-04T11:32:29.509Z,0.90
2022-12-04T11:35:01.316Z,0.80
2022-12-04T11:37:32.369Z,1.25
2022-12-04T11:39:59.657Z,1.50
2022-12-04T11:42:31.517Z,1.70
2022-12-04T11:45:21.690Z,1.30
2022-12-04T11:48:00.160Z,1.40
2022-12-04T11:50:38.377Z,1.33
2022-12-04T11:53:05.363Z,1.30
2022-12-04T11:56:07.016Z,1.20
2022-12-04T11:58:42.685Z,1.20
2022-12-04T12:01:28.474Z,1.38
2022-12-04T12:04:14.206Z,1.30
2022-12-04T12:07:07.358Z,1.58
2022-12-04T12:09:44.904Z,1.67
2022-12-04T12:12:19.636Z,1.10
2022-12-04T12:14:58.431Z,1.08
2022-12-04T12:17:50.442Z,1.00
2022-12-04T12:20:17.355Z,0.90
2022-12-04T12:23:01.221Z,0.98
2022-12-04T12:25:52.297Z,1.05
2022-12-04T12:28:38.487Z,0.85
2022-12-04T12:31:42.960Z,0.90
2022-12-04T12:34:37.972Z,1.42
2022-12-04T12:37:14.955Z,1.00
2022-12-04T12:39:51.198Z,0.90
2022-12-04T12:42:27.364Z,1.27
2022-12-04T12:45:05.353Z,1.75
2022-12-04T12:47:41.712Z,1.67
2022-12-04T12:50:14.347Z,1.90
2022-12-04T12:52:59.003Z,1.70
2022-12-04T12:55:46.499Z,1.05
2022-12-04T12:58:16.168Z,1.35
2022-12-04T13:00:55.325Z,1.27
2022-12-04T13:03:28.631Z,1.10
2022-12-04T13:06:01.509Z,1.52
2022-12-04T13:08:35.618Z,1.57
2022-12-04T13:11:12.808Z,1.50
2022-12-04T13:13:48.965Z,1.30
2022-12-04T13:16:23.291Z,1.33
2022-12-04T13:19:08.366Z,1.20
2022-12-04T13:21:42.090Z,1.33
2022-12-04T13:27:14.496Z,1.00
2022-12-04T13:29:59.444Z,1.10
2022-12-04T13:32:58.656Z,1.00
2022-12-04T13:35:59.124Z,1.52
2022-12-04T13:38:32.200Z,1.48
2022-12-04T13:41:09.074Z,1.30
2022-12-04T13:43:42.136Z,1.70
2022-12-04T13:46:37.934Z,1.50
2022-12-04T13:49:25.451Z,1.35
2022-12-04T13:51:53.871Z,1.38
2022-12-04T13:54:29.250Z,1.35
2022-12-04T13:57:13.313Z,1.90
2022-12-04T14:02:38.086Z,0.80
2022-12-04T14:05:11.882Z,1.13
2022-12-04T14:10:23.328Z,1.70
2022-12-04T14:12:59.603Z,1.20
2022-12-04T14:15:34.065Z,1.63
2022-12-04T14:18:09.750Z,1.20
2022-12-04T14:20:37.515Z,1.20
2022-12-04T14:23:28.520Z,1.00
2022-12-04T14:25:58.106Z,1.00
2022-12-04T14:28:27.328Z,1.35
2022-12-04T14:31:09.597Z,1.90
2022-12-04T14:33:49.000Z,1.60
2022-12-04T14:36:21.328Z,1.50
2022-12-04T14:38:51.320Z,1.60
2022-12-04T14:41:25.446Z,1.85
2022-12-04T14:43:53.137Z,1.63
2022-12-04T14:46:26.271Z,1.60
2022-12-04T14:49:04.264Z,1.40
2022-12-04T14:51:44.557Z,1.48
2022-12-04T14:54:43.017Z,1.80
2022-12-04T14:57:41.640Z,1.15
2022-12-04T15:00:20.309Z,1.52
2022-12-04T15:02:49.273Z,1.60
2022-12-04T15:05:35.398Z,1.40
2022-12-04T15:08:06.882Z,1.38
2022-12-04T15:10:54.265Z,1.40
2022-12-04T15:13:28.316Z,1.13
2022-12-04T15:15:55.498Z,1.30
2022-12-04T15:18:22.745Z,1.30
2022-12-04T15:20:49.747Z,1.20
2022-12-04T15:23:19.900Z,1.70
2022-12-04T15:25:51.202Z,1.70
2022-12-04T15:28:29.219Z,1.40
2022-12-04T15:31:00.109Z,1.45
2022-12-04T15:33:32.842Z,1.88
2022-12-04T15:36:06.243Z,1.65
2022-12-04T15:38:33.877Z,2.25
2022-12-04T15:41:01.779Z,1.83
2022-12-04T15:43:32.182Z,2.30
2022-12-04T15:45:59.656Z,2.00
2022-12-04T15:48:29.286Z,2.00
2022-12-04T15:51:02.120Z,1.90
2022-12-04T15:53:37.478Z,1.80
2022-12-04T15:56:08.207Z,1.77
2022-12-04T15:58:47.052Z,1.70
2022-12-04T16:01:15.955Z,1.67
2022-12-04T16:03:43.363Z,1.83
2022-12-04T16:06:21.482Z,1.63
2022-12-04T16:08:54.378Z,1.90
2022-12-04T16:11:21.743Z,1.67
2022-12-04T16:14:09.237Z,2.00
2022-12-04T16:16:38.075Z,2.00
2022-12-04T16:19:12.714Z,1.77
2022-12-04T16:21:39.872Z,1.70
2022-12-04T16:24:07.972Z,2.35
2022-12-04T16:26:37.342Z,2.90
2022-12-04T16:29:04.359Z,2.58
2022-12-04T16:31:31.399Z,1.90
2022-12-04T16:33:58.586Z,2.00
2022-12-04T16:36:25.554Z,2.10
2022-12-04T16:38:52.597Z,1.67
2022-12-04T16:41:20.273Z,1.30
2022-12-04T16:43:54.974Z,1.40
2022-12-04T16:46:25.008Z,1.35
2022-12-04T16:48:52.516Z,1.35
2022-12-04T16:51:25.055Z,2.03
2022-12-04T16:53:53.185Z,1.50
2022-12-04T16:56:20.927Z,1.40
2022-12-04T16:58:48.291Z,1.35
2022-12-04T17:01:27.785Z,1.27
2022-12-04T17:03:54.937Z,1.40
2022-12-04T17:06:22.015Z,1.70
2022-12-04T17:08:49.119Z,1.67
2022-12-04T17:11:17.854Z,1.65
2022-12-04T17:13:45.121Z,1.10
2022-12-04T17:16:15.023Z,1.30
2022-12-04T17:18:45.568Z,1.58
2022-12-04T17:21:14.765Z,1.30
2022-12-04T17:23:42.384Z,1.13
2022-12-04T17:26:12.441Z,1.00
2022-12-04T17:28:39.939Z,1.95
2022-12-04T17:31:15.502Z,1.95
2022-12-04T17:33:43.760Z,2.63
2022-12-04T17:36:13.400Z,2.10
2022-12-04T17:38:43.890Z,1.75
2022-12-04T17:41:14.319Z,2.10
2022-12-04T17:43:42.669Z,1.75
2022-12-04T17:46:19.133Z,1.50
2022-12-04T17:48:46.649Z,1.70
2022-12-04T17:51:17.645Z,1.60
2022-12-04T17:53:45.332Z,1.25
2022-12-04T17:56:17.658Z,1.70
2022-12-04T17:58:45.656Z,1.60
2022-12-04T18:01:21.974Z,1.90
2022-12-04T18:03:54.064Z,1.63
2022-12-04T18:06:26.821Z,1.40
2022-12-04T18:08:54.517Z,1.50
2022-12-04T18:11:24.075Z,1.48
2022-12-04T18:13:56.602Z,1.58
2022-12-04T18:16:24.808Z,2.00
2022-12-04T18:18:56.066Z,2.00
2022-12-04T18:21:23.651Z,3.47
2022-12-04T18:23:50.963Z,1.83
2022-12-04T18:26:20.776Z,1.35
2022-12-04T18:28:48.889Z,1.52
2022-12-04T18:31:18.087Z,1.27
2022-12-04T18:33:45.287Z,1.20
2022-12-04T18:36:18.563Z,1.25
2022-12-04T18:38:46.761Z,2.25
2022-12-04T18:41:14.853Z,1.50
2022-12-04T18:43:45.055Z,2.15
2022-12-04T18:46:14.774Z,2.10
2022-12-04T18:48:41.974Z,1.52
2022-12-04T18:51:19.227Z,1.90
2022-12-04T18:53:47.216Z,2.10
2022-12-04T18:56:15.027Z,2.72
2022-12-04T18:58:43.115Z,2.65
2022-12-04T19:01:12.723Z,1.92
2022-12-04T19:03:39.997Z,1.83
2022-12-04T19:06:07.820Z,1.50
2022-12-04T19:08:38.764Z,1.60
2022-12-04T19:11:14.740Z,1.60
2022-12-04T19:13:42.818Z,1.60
2022-12-04T19:16:14.247Z,1.70
2022-12-04T19:18:42.543Z,1.70
2022-12-04T19:21:09.703Z,1.98
2022-12-04T19:23:37.157Z,1.80
2022-12-04T19:26:04.413Z,1.70
2022-12-04T19:28:31.718Z,1.88
2022-12-04T19:30:58.772Z,1.33
2022-12-04T19:33:26.647Z,1.63
2022-12-04T19:36:05.387Z,1.38
2022-12-04T19:38:33.681Z,2.00
2022-12-04T19:41:18.693Z,1.90
2022-12-04T19:43:56.795Z,1.42
2022-12-04T19:46:29.150Z,1.50
2022-12-04T19:48:58.959Z,1.50
2022-12-04T19:51:26.093Z,1.33
2022-12-04T19:53:54.940Z,1.30
2022-12-04T19:56:24.841Z,1.77
2022-12-04T19:58:54.800Z,1.20
2022-12-04T20:01:28.660Z,1.35
2022-12-04T20:03:56.745Z,1.40
2022-12-04T20:06:26.270Z,1.10
2022-12-04T20:08:56.264Z,1.05
2022-12-04T20:11:23.728Z,1.38
2022-12-04T20:13:54.292Z,1.20
2022-12-04T20:16:22.568Z,1.10
2022-12-04T20:18:49.941Z,1.17
2022-12-04T20:21:17.621Z,1.33
2022-12-04T20:23:49.703Z,1.10
2022-12-04T20:26:20.887Z,1.10
2022-12-04T20:28:47.928Z,1.20
2022-12-04T20:31:38.587Z,1.17
2022-12-04T20:34:13.676Z,1.00
2022-12-04T20:36:43.816Z,1.10
2022-12-04T20:39:12.623Z,1.20
2022-12-04T20:41:39.974Z,1.00
2022-12-04T20:44:09.348Z,1.20
2022-12-04T20:46:38.798Z,1.13
2022-12-04T20:49:17.211Z,1.13
2022-12-04T20:51:48.229Z,1.30
2022-12-04T20:54:21.020Z,0.90
2022-12-04T20:56:49.670Z,1.60
2022-12-04T20:59:18.584Z,1.10
2022-12-04T21:01:46.060Z,1.13
2022-12-04T21:04:13.591Z,1.20
2022-12-04T21:06:41.904Z,1.08
2022-12-04T21:09:12.928Z,1.17
2022-12-04T21:11:45.111Z,1.20
2022-12-04T21:14:33.945Z,1.00
2022-12-04T21:17:01.894Z,1.08
2022-12-04T21:19:29.023Z,1.10
2022-12-04T21:21:56.161Z,1.00
2022-12-04T21:24:24.616Z,0.90
2022-12-04T21:26:51.613Z,0.95
2022-12-04T21:29:18.982Z,0.90
2022-12-04T21:31:46.301Z,1.20
2022-12-04T21:34:15.241Z,0.90
2022-12-04T21:36:42.377Z,1.05
2022-12-04T21:39:09.736Z,0.80
2022-12-04T21:41:55.127Z,1.25
2022-12-04T21:44:22.498Z,1.40
2022-12-04T21:46:50.581Z,1.02
2022-12-04T21:49:19.256Z,0.85
2022-12-04T21:52:01.800Z,1.17
2022-12-04T21:54:29.279Z,1.00
2022-12-04T21:56:57.163Z,1.10
2022-12-04T21:59:25.913Z,0.90
2022-12-04T22:01:53.779Z,0.93
2022-12-04T22:04:21.125Z,0.90
2022-12-04T22:06:48.196Z,0.90
2022-12-04T22:09:15.210Z,0.85
2022-12-04T22:11:42.697Z,1.20
2022-12-04T22:14:11.106Z,1.10
2022-12-04T22:16:42.426Z,0.90
2022-12-04T22:19:12.107Z,1.42
2022-12-04T22:21:40.129Z,1.15
2022-12-04T22:24:07.859Z,2.15
2022-12-04T22:26:34.876Z,2.00
2022-12-04T22:29:11.197Z,2.35
2022-12-04T22:31:49.590Z,2.22
2022-12-04T22:34:16.591Z,1.77
2022-12-04T22:36:43.599Z,1.40
2022-12-04T22:39:11.258Z,1.20
2022-12-04T22:41:39.137Z,1.52
2022-12-04T22:44:06.500Z,1.33
2022-12-04T22:46:34.617Z,1.25
2022-12-04T22:49:01.851Z,1.50
2022-12-04T22:51:29.081Z,1.08
2022-12-04T22:53:57.880Z,1.00
2022-12-04T22:56:30.526Z,1.10
2022-12-04T22:58:58.668Z,1.02
2022-12-04T23:01:28.511Z,2.00
2022-12-04T23:03:56.599Z,2.38
2022-12-04T23:06:26.109Z,2.00
2022-12-04T23:08:59.135Z,2.78
2022-12-04T23:11:27.762Z,3.80
2022-12-04T23:13:57.655Z,3.33
2022-12-04T23:16:25.512Z,3.40
2022-12-04T23:18:53.246Z,3.55
2022-12-04T23:21:22.176Z,3.40
2022-12-04T23:23:51.050Z,4.55
2022-12-04T23:26:20.502Z,5.22
2022-12-04T23:28:48.216Z,5.05
2022-12-04T23:31:16.310Z,4.30
2022-12-04T23:33:43.915Z,4.95
2022-12-04T23:36:12.966Z,3.67
2022-12-04T23:38:41.503Z,3.17
2022-12-04T23:41:12.595Z,2.00
2022-12-04T23:43:40.431Z,1.92
2022-12-04T23:46:11.197Z,1.88
2022-12-04T23:48:40.245Z,1.40
2022-12-04T23:51:08.454Z,1.85
2022-12-04T23:53:35.820Z,1.73
2022-12-04T23:56:07.615Z,1.70
2022-12-04T23:58:35.415Z,2.30
